<?xml version="1.0" encoding="UTF-8" standalone="yes"?>
<gpx version="1.1" creator="outdooractive - http://www.outdooractive.com" xmlns="http://www.topografix.com/GPX/1/1" xmlns:oa="http://www.outdooractive.com/GPX/Extensions/1" xmlns:xsi="http://www.w3.org/2001/XMLSchema-instance" xsi:schemaLocation="http://www.topografix.com/GPX/1/1 http://www.topografix.com/GPX/1/1/gpx.xsd http://www.outdooractive.com/GPX/Extensions/1 https://www.outdooractive.com/schema/gpx_extensions.xsd">
  <metadata>
    <name>Percorso 0 anello Frassinetto percorso training</name>
    <author>
      <name>Flavio Querio - Community</name>
    </author>
    <link href="https://www.outdooractive.com/r/335080275"/>
    <time>2026-02-24T13:08:09.700Z</time>
    <extensions>
      <oa:oaCategory>hikingTourTrail</oa:oaCategory>
    </extensions>
  </metadata>
  <trk>
    <name>Percorso 0 anello Frassinetto percorso training</name>
    <desc><![CDATA[Il primo percorso che vi presentiamo è in realtà una breve passeggiata intorno a un poggio Frassinettese denominato Pian Capel è adatto anche alle famiglie e ricalca un Percorso Training completo di 14 postazioni. / Si parte nel piazzale del parcheggio antistante il nuovo salone pluriuso Pian Capel verso gli impianti sportivi in località Pradas e la stazione di arrivo dell'Arcansel, superato il parcheggio del ristorante si prende la sterrata a fianco del campetto da calcio, qui ha inizio anche la prima stazione del Percorso Training che seguita a dovere ci riporta nel piazzale al punto di partenza concludendo il circuito in una ventina di minuti, se invece volete fare anche il Percorso Training dovete attenervi si tempi e modalità scritte sulla cartellonistica / Distanza: 1,1 Km / Dislivello: + 26 mt - 26 mt / Quota part: 1025 mt park pluriuso / Quota max: 1050mt Pian Capel / Quota min: 1024mt discesa Arcansel / Tempo perc: 20 Min / Grado difficoltà: E /]]></desc>
    <type>hikingTourTrail</type>
    <trkseg>
      <trkpt lat="45.436167" lon="7.603632">
        <ele>1046.81019</ele>
        <time>2026-02-20T13:14:50.000Z</time>
        <name>16c962b6d481a38a7c248f587a852039c33632b0</name>
      </trkpt>
      <trkpt lat="45.436121" lon="7.603586">
        <ele>1045.89331</ele>
        <time>2026-02-20T13:15:00.000Z</time>
      </trkpt>
      <trkpt lat="45.436119" lon="7.603548">
        <ele>1045.71166</ele>
        <time>2026-02-20T13:15:04.000Z</time>
      </trkpt>
      <trkpt lat="45.43612" lon="7.603506">
        <ele>1045.5309</ele>
        <time>2026-02-20T13:15:08.000Z</time>
      </trkpt>
      <trkpt lat="45.436128" lon="7.603461">
        <ele>1045.41448</ele>
        <time>2026-02-20T13:15:10.000Z</time>
      </trkpt>
      <trkpt lat="45.436136" lon="7.603401">
        <ele>1045.14421</ele>
        <time>2026-02-20T13:15:13.000Z</time>
      </trkpt>
      <trkpt lat="45.436151" lon="7.603331">
        <ele>1044.82208</ele>
        <time>2026-02-20T13:15:15.000Z</time>
      </trkpt>
      <trkpt lat="45.436178" lon="7.603255">
        <ele>1044.61228</ele>
        <time>2026-02-20T13:15:17.000Z</time>
      </trkpt>
      <trkpt lat="45.436203" lon="7.603203">
        <ele>1044.61329</ele>
        <time>2026-02-20T13:15:21.000Z</time>
      </trkpt>
      <trkpt lat="45.436233" lon="7.603138">
        <ele>1044.6687</ele>
        <time>2026-02-20T13:15:23.000Z</time>
      </trkpt>
      <trkpt lat="45.436258" lon="7.603084">
        <ele>1044.76019</ele>
        <time>2026-02-20T13:15:25.000Z</time>
      </trkpt>
      <trkpt lat="45.436297" lon="7.602987">
        <ele>1044.86297</ele>
        <time>2026-02-20T13:15:34.000Z</time>
      </trkpt>
      <trkpt lat="45.436328" lon="7.602923">
        <ele>1044.9933</ele>
        <time>2026-02-20T13:15:37.000Z</time>
      </trkpt>
      <trkpt lat="45.436343" lon="7.602885">
        <ele>1044.99904</ele>
        <time>2026-02-20T13:15:41.000Z</time>
      </trkpt>
      <trkpt lat="45.436363" lon="7.602838">
        <ele>1045.0246</ele>
        <time>2026-02-20T13:15:43.000Z</time>
      </trkpt>
      <trkpt lat="45.436377" lon="7.60281">
        <ele>1045.06336</ele>
        <time>2026-02-20T13:15:44.000Z</time>
      </trkpt>
      <trkpt lat="45.436391" lon="7.602776">
        <ele>1045.06667</ele>
        <time>2026-02-20T13:15:47.000Z</time>
      </trkpt>
      <trkpt lat="45.436403" lon="7.602748">
        <ele>1045.06834</ele>
        <time>2026-02-20T13:15:50.000Z</time>
      </trkpt>
      <trkpt lat="45.43642" lon="7.602716">
        <ele>1045.09551</ele>
        <time>2026-02-20T13:15:51.000Z</time>
      </trkpt>
      <trkpt lat="45.436436" lon="7.602683">
        <ele>1045.08216</ele>
        <time>2026-02-20T13:15:54.000Z</time>
      </trkpt>
      <trkpt lat="45.436458" lon="7.602633">
        <ele>1044.98833</ele>
        <time>2026-02-20T13:15:56.000Z</time>
      </trkpt>
      <trkpt lat="45.436487" lon="7.602572">
        <ele>1044.81936</ele>
        <time>2026-02-20T13:15:58.000Z</time>
      </trkpt>
      <trkpt lat="45.436522" lon="7.602528">
        <ele>1044.74667</ele>
        <time>2026-02-20T13:16:00.000Z</time>
      </trkpt>
      <trkpt lat="45.436571" lon="7.602503">
        <ele>1044.84734</ele>
        <time>2026-02-20T13:16:03.000Z</time>
      </trkpt>
      <trkpt lat="45.436598" lon="7.602496">
        <ele>1044.93806</ele>
        <time>2026-02-20T13:16:06.000Z</time>
      </trkpt>
      <trkpt lat="45.436621" lon="7.602478">
        <ele>1044.92403</ele>
        <time>2026-02-20T13:16:10.000Z</time>
      </trkpt>
      <trkpt lat="45.436642" lon="7.60246">
        <ele>1044.89944</ele>
        <time>2026-02-20T13:16:14.000Z</time>
      </trkpt>
      <trkpt lat="45.436676" lon="7.602461">
        <ele>1045.04528</ele>
        <time>2026-02-20T13:16:15.000Z</time>
      </trkpt>
      <trkpt lat="45.436693" lon="7.602473">
        <ele>1045.17489</ele>
        <time>2026-02-20T13:16:19.000Z</time>
      </trkpt>
      <trkpt lat="45.436712" lon="7.602487">
        <ele>1045.30654</ele>
        <time>2026-02-20T13:16:21.000Z</time>
      </trkpt>
      <trkpt lat="45.436747" lon="7.602501">
        <ele>1045.44449</ele>
        <time>2026-02-20T13:16:23.000Z</time>
      </trkpt>
      <trkpt lat="45.436777" lon="7.602484">
        <ele>1045.39685</ele>
        <time>2026-02-20T13:16:26.000Z</time>
      </trkpt>
      <trkpt lat="45.436804" lon="7.602478">
        <ele>1045.37778</ele>
        <time>2026-02-20T13:16:29.000Z</time>
      </trkpt>
      <trkpt lat="45.436841" lon="7.602454">
        <ele>1045.24724</ele>
        <time>2026-02-20T13:16:31.000Z</time>
      </trkpt>
      <trkpt lat="45.436876" lon="7.602442">
        <ele>1045.14718</ele>
        <time>2026-02-20T13:16:34.000Z</time>
      </trkpt>
      <trkpt lat="45.436901" lon="7.602428">
        <ele>1045.0492</ele>
        <time>2026-02-20T13:16:36.000Z</time>
      </trkpt>
      <trkpt lat="45.436949" lon="7.602418">
        <ele>1044.93638</ele>
        <time>2026-02-20T13:16:38.000Z</time>
      </trkpt>
      <trkpt lat="45.436973" lon="7.602394">
        <ele>1044.82484</ele>
        <time>2026-02-20T13:16:40.000Z</time>
      </trkpt>
      <trkpt lat="45.436999" lon="7.602374">
        <ele>1044.73064</ele>
        <time>2026-02-20T13:16:42.000Z</time>
      </trkpt>
      <trkpt lat="45.43703" lon="7.602357">
        <ele>1044.64265</ele>
        <time>2026-02-20T13:16:50.000Z</time>
      </trkpt>
      <trkpt lat="45.43706" lon="7.602342">
        <ele>1044.54927</ele>
        <time>2026-02-20T13:16:53.000Z</time>
      </trkpt>
      <trkpt lat="45.4371" lon="7.602328">
        <ele>1044.4135</ele>
        <time>2026-02-20T13:16:56.000Z</time>
      </trkpt>
      <trkpt lat="45.437122" lon="7.602308">
        <ele>1044.2792</ele>
        <time>2026-02-20T13:16:58.000Z</time>
      </trkpt>
      <trkpt lat="45.437144" lon="7.602296">
        <ele>1044.17028</ele>
        <time>2026-02-20T13:17:00.000Z</time>
      </trkpt>
      <trkpt lat="45.43717" lon="7.602278">
        <ele>1044.0409</ele>
        <time>2026-02-20T13:17:04.000Z</time>
      </trkpt>
      <trkpt lat="45.437203" lon="7.602263">
        <ele>1043.91895</ele>
        <time>2026-02-20T13:17:06.000Z</time>
      </trkpt>
      <trkpt lat="45.437233" lon="7.602245">
        <ele>1043.81577</ele>
        <time>2026-02-20T13:17:08.000Z</time>
      </trkpt>
      <trkpt lat="45.437273" lon="7.602219">
        <ele>1043.7026</ele>
        <time>2026-02-20T13:17:10.000Z</time>
      </trkpt>
      <trkpt lat="45.437297" lon="7.602207">
        <ele>1043.63894</ele>
        <time>2026-02-20T13:17:12.000Z</time>
      </trkpt>
      <trkpt lat="45.437321" lon="7.602186">
        <ele>1043.5908</ele>
        <time>2026-02-20T13:17:15.000Z</time>
      </trkpt>
      <trkpt lat="45.437342" lon="7.602167">
        <ele>1043.57206</ele>
        <time>2026-02-20T13:17:20.000Z</time>
      </trkpt>
      <trkpt lat="45.437374" lon="7.602152">
        <ele>1043.53708</ele>
        <time>2026-02-20T13:17:22.000Z</time>
      </trkpt>
      <trkpt lat="45.437398" lon="7.602142">
        <ele>1043.51416</ele>
        <time>2026-02-20T13:17:24.000Z</time>
      </trkpt>
      <trkpt lat="45.437425" lon="7.602122">
        <ele>1043.5166</ele>
        <time>2026-02-20T13:17:27.000Z</time>
      </trkpt>
      <trkpt lat="45.437454" lon="7.60211">
        <ele>1043.44953</ele>
        <time>2026-02-20T13:17:29.000Z</time>
      </trkpt>
      <trkpt lat="45.43749" lon="7.602087">
        <ele>1043.33581</ele>
        <time>2026-02-20T13:17:31.000Z</time>
      </trkpt>
      <trkpt lat="45.437518" lon="7.602068">
        <ele>1043.21468</ele>
        <time>2026-02-20T13:17:33.000Z</time>
      </trkpt>
      <trkpt lat="45.437549" lon="7.602054">
        <ele>1043.03832</ele>
        <time>2026-02-20T13:17:35.000Z</time>
      </trkpt>
      <trkpt lat="45.437586" lon="7.602034">
        <ele>1042.84255</ele>
        <time>2026-02-20T13:17:41.000Z</time>
      </trkpt>
      <trkpt lat="45.437608" lon="7.601999">
        <ele>1042.94228</ele>
        <time>2026-02-20T13:17:45.000Z</time>
      </trkpt>
      <trkpt lat="45.437635" lon="7.601958">
        <ele>1043.09685</ele>
        <time>2026-02-20T13:17:47.000Z</time>
      </trkpt>
      <trkpt lat="45.437659" lon="7.601902">
        <ele>1043.3949</ele>
        <time>2026-02-20T13:17:50.000Z</time>
      </trkpt>
      <trkpt lat="45.43766" lon="7.601868">
        <ele>1043.61244</ele>
        <time>2026-02-20T13:17:53.000Z</time>
      </trkpt>
      <trkpt lat="45.437661" lon="7.601825">
        <ele>1043.73891</ele>
        <time>2026-02-20T13:17:56.000Z</time>
      </trkpt>
      <trkpt lat="45.437665" lon="7.601789">
        <ele>1043.73452</ele>
        <time>2026-02-20T13:17:58.000Z</time>
      </trkpt>
      <trkpt lat="45.437667" lon="7.601754">
        <ele>1043.67946</ele>
        <time>2026-02-20T13:18:01.000Z</time>
      </trkpt>
      <trkpt lat="45.437659" lon="7.601717">
        <ele>1043.59152</ele>
        <time>2026-02-20T13:18:04.000Z</time>
      </trkpt>
      <trkpt lat="45.437676" lon="7.601689">
        <ele>1043.4333</ele>
        <time>2026-02-20T13:18:06.000Z</time>
      </trkpt>
      <trkpt lat="45.437691" lon="7.601664">
        <ele>1043.30201</ele>
        <time>2026-02-20T13:18:08.000Z</time>
      </trkpt>
      <trkpt lat="45.437708" lon="7.601642">
        <ele>1043.20583</ele>
        <time>2026-02-20T13:18:10.000Z</time>
      </trkpt>
      <trkpt lat="45.437722" lon="7.6016">
        <ele>1043.05434</ele>
        <time>2026-02-20T13:18:13.000Z</time>
      </trkpt>
      <trkpt lat="45.437734" lon="7.601571">
        <ele>1042.95368</ele>
        <time>2026-02-20T13:18:16.000Z</time>
      </trkpt>
      <trkpt lat="45.43775" lon="7.601534">
        <ele>1042.8035</ele>
        <time>2026-02-20T13:18:19.000Z</time>
      </trkpt>
      <trkpt lat="45.437762" lon="7.601499">
        <ele>1042.62252</ele>
        <time>2026-02-20T13:18:22.000Z</time>
      </trkpt>
      <trkpt lat="45.437782" lon="7.601461">
        <ele>1042.44831</ele>
        <time>2026-02-20T13:18:23.000Z</time>
      </trkpt>
      <trkpt lat="45.437788" lon="7.601427">
        <ele>1042.20717</ele>
        <time>2026-02-20T13:18:25.000Z</time>
      </trkpt>
      <trkpt lat="45.437799" lon="7.60139">
        <ele>1041.96655</ele>
        <time>2026-02-20T13:18:28.000Z</time>
      </trkpt>
      <trkpt lat="45.437814" lon="7.601361">
        <ele>1041.81472</ele>
        <time>2026-02-20T13:18:30.000Z</time>
      </trkpt>
      <trkpt lat="45.437836" lon="7.601338">
        <ele>1041.70471</ele>
        <time>2026-02-20T13:18:32.000Z</time>
      </trkpt>
      <trkpt lat="45.437862" lon="7.601321">
        <ele>1041.54389</ele>
        <time>2026-02-20T13:18:34.000Z</time>
      </trkpt>
      <trkpt lat="45.437882" lon="7.601286">
        <ele>1041.23924</ele>
        <time>2026-02-20T13:18:36.000Z</time>
      </trkpt>
      <trkpt lat="45.437902" lon="7.601245">
        <ele>1040.89851</ele>
        <time>2026-02-20T13:18:39.000Z</time>
      </trkpt>
      <trkpt lat="45.437909" lon="7.601202">
        <ele>1040.61524</ele>
        <time>2026-02-20T13:18:42.000Z</time>
      </trkpt>
      <trkpt lat="45.437923" lon="7.601151">
        <ele>1040.29842</ele>
        <time>2026-02-20T13:18:44.000Z</time>
      </trkpt>
      <trkpt lat="45.437942" lon="7.601097">
        <ele>1040.03252</ele>
        <time>2026-02-20T13:18:47.000Z</time>
      </trkpt>
      <trkpt lat="45.437959" lon="7.601074">
        <ele>1039.95415</ele>
        <time>2026-02-20T13:18:49.000Z</time>
      </trkpt>
      <trkpt lat="45.437984" lon="7.601058">
        <ele>1039.88382</ele>
        <time>2026-02-20T13:18:52.000Z</time>
      </trkpt>
      <trkpt lat="45.438009" lon="7.60105">
        <ele>1039.7512</ele>
        <time>2026-02-20T13:18:56.000Z</time>
      </trkpt>
      <trkpt lat="45.438036" lon="7.601063">
        <ele>1039.48605</ele>
        <time>2026-02-20T13:18:59.000Z</time>
      </trkpt>
      <trkpt lat="45.438061" lon="7.601064">
        <ele>1039.07565</ele>
        <time>2026-02-20T13:19:01.000Z</time>
      </trkpt>
      <trkpt lat="45.438085" lon="7.601071">
        <ele>1038.57578</ele>
        <time>2026-02-20T13:19:03.000Z</time>
      </trkpt>
      <trkpt lat="45.438103" lon="7.601091">
        <ele>1038.13878</ele>
        <time>2026-02-20T13:19:07.000Z</time>
      </trkpt>
      <trkpt lat="45.438134" lon="7.601092">
        <ele>1037.3308</ele>
        <time>2026-02-20T13:19:13.000Z</time>
      </trkpt>
      <trkpt lat="45.43816" lon="7.601087">
        <ele>1036.62933</ele>
        <time>2026-02-20T13:19:17.000Z</time>
      </trkpt>
      <trkpt lat="45.438182" lon="7.601078">
        <ele>1036.04581</ele>
        <time>2026-02-20T13:19:21.000Z</time>
      </trkpt>
      <trkpt lat="45.438205" lon="7.601069">
        <ele>1035.46059</ele>
        <time>2026-02-20T13:19:26.000Z</time>
      </trkpt>
      <trkpt lat="45.438226" lon="7.601091">
        <ele>1034.87702</ele>
        <time>2026-02-20T13:19:30.000Z</time>
      </trkpt>
      <trkpt lat="45.438252" lon="7.601093">
        <ele>1034.15095</ele>
        <time>2026-02-20T13:19:32.000Z</time>
      </trkpt>
      <trkpt lat="45.438278" lon="7.601096">
        <ele>1033.40099</ele>
        <time>2026-02-20T13:19:35.000Z</time>
      </trkpt>
      <trkpt lat="45.43831" lon="7.601105">
        <ele>1032.4609</ele>
        <time>2026-02-20T13:19:39.000Z</time>
      </trkpt>
      <trkpt lat="45.438338" lon="7.6011">
        <ele>1031.67285</ele>
        <time>2026-02-20T13:19:41.000Z</time>
      </trkpt>
      <trkpt lat="45.438366" lon="7.601091">
        <ele>1030.9219</ele>
        <time>2026-02-20T13:19:46.000Z</time>
      </trkpt>
      <trkpt lat="45.438394" lon="7.601072">
        <ele>1030.2255</ele>
        <time>2026-02-20T13:19:49.000Z</time>
      </trkpt>
      <trkpt lat="45.438418" lon="7.601063">
        <ele>1029.63665</ele>
        <time>2026-02-20T13:19:54.000Z</time>
      </trkpt>
      <trkpt lat="45.438442" lon="7.601061">
        <ele>1029.05671</ele>
        <time>2026-02-20T13:19:57.000Z</time>
      </trkpt>
      <trkpt lat="45.438444" lon="7.601097">
        <ele>1028.97869</ele>
        <time>2026-02-20T13:20:04.000Z</time>
      </trkpt>
      <trkpt lat="45.438436" lon="7.60113">
        <ele>1029.10136</ele>
        <time>2026-02-20T13:20:08.000Z</time>
      </trkpt>
      <trkpt lat="45.438429" lon="7.601165">
        <ele>1029.16644</ele>
        <time>2026-02-20T13:20:11.000Z</time>
      </trkpt>
      <trkpt lat="45.43842" lon="7.601197">
        <ele>1029.27113</ele>
        <time>2026-02-20T13:20:14.000Z</time>
      </trkpt>
      <trkpt lat="45.438406" lon="7.601232">
        <ele>1029.48106</ele>
        <time>2026-02-20T13:20:17.000Z</time>
      </trkpt>
      <trkpt lat="45.4384" lon="7.601269">
        <ele>1029.47783</ele>
        <time>2026-02-20T13:20:20.000Z</time>
      </trkpt>
      <trkpt lat="45.438382" lon="7.601315">
        <ele>1029.75356</ele>
        <time>2026-02-20T13:20:22.000Z</time>
      </trkpt>
      <trkpt lat="45.438374" lon="7.60136">
        <ele>1029.76961</ele>
        <time>2026-02-20T13:20:26.000Z</time>
      </trkpt>
      <trkpt lat="45.438355" lon="7.601395">
        <ele>1030.12497</ele>
        <time>2026-02-20T13:20:30.000Z</time>
      </trkpt>
      <trkpt lat="45.438333" lon="7.601428">
        <ele>1030.569</ele>
        <time>2026-02-20T13:20:32.000Z</time>
      </trkpt>
      <trkpt lat="45.438317" lon="7.601462">
        <ele>1030.82783</ele>
        <time>2026-02-20T13:20:36.000Z</time>
      </trkpt>
      <trkpt lat="45.438294" lon="7.6015">
        <ele>1031.24763</ele>
        <time>2026-02-20T13:20:38.000Z</time>
      </trkpt>
      <trkpt lat="45.43828" lon="7.601529">
        <ele>1031.45671</ele>
        <time>2026-02-20T13:20:39.000Z</time>
      </trkpt>
      <trkpt lat="45.438279" lon="7.601572">
        <ele>1031.19036</ele>
        <time>2026-02-20T13:20:43.000Z</time>
      </trkpt>
      <trkpt lat="45.438273" lon="7.601614">
        <ele>1031.06394</ele>
        <time>2026-02-20T13:20:46.000Z</time>
      </trkpt>
      <trkpt lat="45.438285" lon="7.601645">
        <ele>1030.51041</ele>
        <time>2026-02-20T13:21:12.000Z</time>
      </trkpt>
      <trkpt lat="45.43827" lon="7.601679">
        <ele>1030.68082</ele>
        <time>2026-02-20T13:21:16.000Z</time>
      </trkpt>
      <trkpt lat="45.438252" lon="7.601704">
        <ele>1030.98645</ele>
        <time>2026-02-20T13:21:18.000Z</time>
      </trkpt>
      <trkpt lat="45.438246" lon="7.601737">
        <ele>1030.88084</ele>
        <time>2026-02-20T13:21:21.000Z</time>
      </trkpt>
      <trkpt lat="45.43823" lon="7.601762">
        <ele>1031.09979</ele>
        <time>2026-02-20T13:21:24.000Z</time>
      </trkpt>
      <trkpt lat="45.438216" lon="7.601787">
        <ele>1031.24966</ele>
        <time>2026-02-20T13:21:26.000Z</time>
      </trkpt>
      <trkpt lat="45.438207" lon="7.601824">
        <ele>1031.12191</ele>
        <time>2026-02-20T13:21:30.000Z</time>
      </trkpt>
      <trkpt lat="45.438219" lon="7.601846">
        <ele>1030.55233</ele>
        <time>2026-02-20T13:21:43.000Z</time>
      </trkpt>
      <trkpt lat="45.438219" lon="7.601871">
        <ele>1030.24811</ele>
        <time>2026-02-20T13:21:46.000Z</time>
      </trkpt>
      <trkpt lat="45.438209" lon="7.601903">
        <ele>1030.09107</ele>
        <time>2026-02-20T13:21:48.000Z</time>
      </trkpt>
      <trkpt lat="45.438189" lon="7.601929">
        <ele>1030.27336</ele>
        <time>2026-02-20T13:21:50.000Z</time>
      </trkpt>
      <trkpt lat="45.438181" lon="7.601966">
        <ele>1029.94819</ele>
        <time>2026-02-20T13:21:53.000Z</time>
      </trkpt>
      <trkpt lat="45.438162" lon="7.601999">
        <ele>1029.98931</ele>
        <time>2026-02-20T13:21:56.000Z</time>
      </trkpt>
      <trkpt lat="45.438132" lon="7.602011">
        <ele>1030.63656</ele>
        <time>2026-02-20T13:21:59.000Z</time>
      </trkpt>
      <trkpt lat="45.438103" lon="7.602034">
        <ele>1031.08721</ele>
        <time>2026-02-20T13:22:02.000Z</time>
      </trkpt>
      <trkpt lat="45.438084" lon="7.602057">
        <ele>1031.27511</ele>
        <time>2026-02-20T13:22:04.000Z</time>
      </trkpt>
      <trkpt lat="45.438062" lon="7.602083">
        <ele>1031.5213</ele>
        <time>2026-02-20T13:22:07.000Z</time>
      </trkpt>
      <trkpt lat="45.438037" lon="7.602112">
        <ele>1031.84322</ele>
        <time>2026-02-20T13:22:09.000Z</time>
      </trkpt>
      <trkpt lat="45.438017" lon="7.602142">
        <ele>1032.02711</ele>
        <time>2026-02-20T13:22:12.000Z</time>
      </trkpt>
      <trkpt lat="45.437996" lon="7.602177">
        <ele>1032.18875</ele>
        <time>2026-02-20T13:22:15.000Z</time>
      </trkpt>
      <trkpt lat="45.437982" lon="7.602213">
        <ele>1032.20139</ele>
        <time>2026-02-20T13:22:17.000Z</time>
      </trkpt>
      <trkpt lat="45.437976" lon="7.602247">
        <ele>1032.08794</ele>
        <time>2026-02-20T13:22:20.000Z</time>
      </trkpt>
      <trkpt lat="45.43797" lon="7.602294">
        <ele>1031.99655</ele>
        <time>2026-02-20T13:22:23.000Z</time>
      </trkpt>
      <trkpt lat="45.437968" lon="7.602337">
        <ele>1031.98348</ele>
        <time>2026-02-20T13:22:25.000Z</time>
      </trkpt>
      <trkpt lat="45.437967" lon="7.602369">
        <ele>1032.08234</ele>
        <time>2026-02-20T13:22:26.000Z</time>
      </trkpt>
      <trkpt lat="45.437966" lon="7.602405">
        <ele>1032.32829</ele>
        <time>2026-02-20T13:22:29.000Z</time>
      </trkpt>
      <trkpt lat="45.437967" lon="7.602448">
        <ele>1032.72525</ele>
        <time>2026-02-20T13:22:34.000Z</time>
      </trkpt>
      <trkpt lat="45.437983" lon="7.602484">
        <ele>1032.77939</ele>
        <time>2026-02-20T13:22:37.000Z</time>
      </trkpt>
      <trkpt lat="45.438" lon="7.602515">
        <ele>1032.80871</ele>
        <time>2026-02-20T13:22:39.000Z</time>
      </trkpt>
      <trkpt lat="45.438008" lon="7.602554">
        <ele>1033.21712</ele>
        <time>2026-02-20T13:22:40.000Z</time>
      </trkpt>
      <trkpt lat="45.438017" lon="7.602584">
        <ele>1033.47207</ele>
        <time>2026-02-20T13:22:43.000Z</time>
      </trkpt>
      <trkpt lat="45.438037" lon="7.602613">
        <ele>1033.44994</ele>
        <time>2026-02-20T13:22:45.000Z</time>
      </trkpt>
      <trkpt lat="45.438061" lon="7.602646">
        <ele>1033.43334</ele>
        <time>2026-02-20T13:22:48.000Z</time>
      </trkpt>
      <trkpt lat="45.438072" lon="7.602677">
        <ele>1033.7145</ele>
        <time>2026-02-20T13:22:51.000Z</time>
      </trkpt>
      <trkpt lat="45.438075" lon="7.602714">
        <ele>1034.29731</ele>
        <time>2026-02-20T13:22:56.000Z</time>
      </trkpt>
      <trkpt lat="45.43808" lon="7.60275">
        <ele>1034.81486</ele>
        <time>2026-02-20T13:23:09.000Z</time>
      </trkpt>
      <trkpt lat="45.438094" lon="7.602777">
        <ele>1034.9296</ele>
        <time>2026-02-20T13:23:12.000Z</time>
      </trkpt>
      <trkpt lat="45.438119" lon="7.602814">
        <ele>1034.85</ele>
        <time>2026-02-20T13:23:14.000Z</time>
      </trkpt>
      <trkpt lat="45.438139" lon="7.602851">
        <ele>1034.77485</ele>
        <time>2026-02-20T13:23:18.000Z</time>
      </trkpt>
      <trkpt lat="45.43815" lon="7.602882">
        <ele>1034.78166</ele>
        <time>2026-02-20T13:23:20.000Z</time>
      </trkpt>
      <trkpt lat="45.43816" lon="7.602911">
        <ele>1034.74337</ele>
        <time>2026-02-20T13:23:21.000Z</time>
      </trkpt>
      <trkpt lat="45.438181" lon="7.602928">
        <ele>1034.24773</ele>
        <time>2026-02-20T13:23:24.000Z</time>
      </trkpt>
      <trkpt lat="45.438194" lon="7.602964">
        <ele>1034.08199</ele>
        <time>2026-02-20T13:23:30.000Z</time>
      </trkpt>
      <trkpt lat="45.438201" lon="7.602997">
        <ele>1034.03425</ele>
        <time>2026-02-20T13:23:31.000Z</time>
      </trkpt>
      <trkpt lat="45.43821" lon="7.603029">
        <ele>1033.88707</ele>
        <time>2026-02-20T13:23:35.000Z</time>
      </trkpt>
      <trkpt lat="45.438213" lon="7.603072">
        <ele>1033.93647</ele>
        <time>2026-02-20T13:23:37.000Z</time>
      </trkpt>
      <trkpt lat="45.438227" lon="7.603103">
        <ele>1033.57884</ele>
        <time>2026-02-20T13:23:40.000Z</time>
      </trkpt>
      <trkpt lat="45.438232" lon="7.603145">
        <ele>1033.5192</ele>
        <time>2026-02-20T13:23:41.000Z</time>
      </trkpt>
      <trkpt lat="45.438236" lon="7.603187">
        <ele>1033.46389</ele>
        <time>2026-02-20T13:23:44.000Z</time>
      </trkpt>
      <trkpt lat="45.438234" lon="7.603228">
        <ele>1033.57233</ele>
        <time>2026-02-20T13:23:46.000Z</time>
      </trkpt>
      <trkpt lat="45.438229" lon="7.603275">
        <ele>1033.75033</ele>
        <time>2026-02-20T13:23:48.000Z</time>
      </trkpt>
      <trkpt lat="45.438229" lon="7.603317">
        <ele>1033.73101</ele>
        <time>2026-02-20T13:23:51.000Z</time>
      </trkpt>
      <trkpt lat="45.438211" lon="7.603349">
        <ele>1034.29688</ele>
        <time>2026-02-20T13:23:55.000Z</time>
      </trkpt>
      <trkpt lat="45.438212" lon="7.603388">
        <ele>1034.19442</ele>
        <time>2026-02-20T13:23:57.000Z</time>
      </trkpt>
      <trkpt lat="45.438206" lon="7.603433">
        <ele>1034.28416</ele>
        <time>2026-02-20T13:24:00.000Z</time>
      </trkpt>
      <trkpt lat="45.438206" lon="7.603466">
        <ele>1034.17324</ele>
        <time>2026-02-20T13:24:03.000Z</time>
      </trkpt>
      <trkpt lat="45.438207" lon="7.603506">
        <ele>1033.97748</ele>
        <time>2026-02-20T13:24:06.000Z</time>
      </trkpt>
      <trkpt lat="45.438212" lon="7.603544">
        <ele>1033.62494</ele>
        <time>2026-02-20T13:24:08.000Z</time>
      </trkpt>
      <trkpt lat="45.438211" lon="7.603585">
        <ele>1033.4453</ele>
        <time>2026-02-20T13:24:10.000Z</time>
      </trkpt>
      <trkpt lat="45.4382" lon="7.603618">
        <ele>1033.64452</ele>
        <time>2026-02-20T13:24:12.000Z</time>
      </trkpt>
      <trkpt lat="45.438189" lon="7.603653">
        <ele>1033.8135</ele>
        <time>2026-02-20T13:24:15.000Z</time>
      </trkpt>
      <trkpt lat="45.438184" lon="7.603687">
        <ele>1033.747</ele>
        <time>2026-02-20T13:24:16.000Z</time>
      </trkpt>
      <trkpt lat="45.438173" lon="7.603716">
        <ele>1033.90086</ele>
        <time>2026-02-20T13:24:20.000Z</time>
      </trkpt>
      <trkpt lat="45.438153" lon="7.603736">
        <ele>1034.41652</ele>
        <time>2026-02-20T13:24:22.000Z</time>
      </trkpt>
      <trkpt lat="45.438137" lon="7.603757">
        <ele>1034.76923</ele>
        <time>2026-02-20T13:24:25.000Z</time>
      </trkpt>
      <trkpt lat="45.438135" lon="7.603795">
        <ele>1034.47587</ele>
        <time>2026-02-20T13:24:27.000Z</time>
      </trkpt>
      <trkpt lat="45.438132" lon="7.603843">
        <ele>1034.11236</ele>
        <time>2026-02-20T13:24:30.000Z</time>
      </trkpt>
      <trkpt lat="45.438128" lon="7.603878">
        <ele>1033.91149</ele>
        <time>2026-02-20T13:24:32.000Z</time>
      </trkpt>
      <trkpt lat="45.438118" lon="7.603921">
        <ele>1033.84756</ele>
        <time>2026-02-20T13:24:35.000Z</time>
      </trkpt>
      <trkpt lat="45.438107" lon="7.60395">
        <ele>1033.95288</ele>
        <time>2026-02-20T13:24:37.000Z</time>
      </trkpt>
      <trkpt lat="45.438084" lon="7.60398">
        <ele>1034.44948</ele>
        <time>2026-02-20T13:24:40.000Z</time>
      </trkpt>
      <trkpt lat="45.438063" lon="7.604016">
        <ele>1034.83863</ele>
        <time>2026-02-20T13:24:42.000Z</time>
      </trkpt>
      <trkpt lat="45.438042" lon="7.604037">
        <ele>1035.37109</ele>
        <time>2026-02-20T13:24:45.000Z</time>
      </trkpt>
      <trkpt lat="45.43802" lon="7.60406">
        <ele>1035.92374</ele>
        <time>2026-02-20T13:24:48.000Z</time>
      </trkpt>
      <trkpt lat="45.43801" lon="7.604098">
        <ele>1035.86206</ele>
        <time>2026-02-20T13:24:52.000Z</time>
      </trkpt>
      <trkpt lat="45.437998" lon="7.604139">
        <ele>1035.78475</ele>
        <time>2026-02-20T13:24:55.000Z</time>
      </trkpt>
      <trkpt lat="45.437974" lon="7.604167">
        <ele>1036.24734</ele>
        <time>2026-02-20T13:25:02.000Z</time>
      </trkpt>
      <trkpt lat="45.437947" lon="7.604175">
        <ele>1037.06989</ele>
        <time>2026-02-20T13:25:05.000Z</time>
      </trkpt>
      <trkpt lat="45.437921" lon="7.604183">
        <ele>1037.84728</ele>
        <time>2026-02-20T13:25:08.000Z</time>
      </trkpt>
      <trkpt lat="45.437901" lon="7.604197">
        <ele>1038.31994</ele>
        <time>2026-02-20T13:25:10.000Z</time>
      </trkpt>
      <trkpt lat="45.437887" lon="7.604225">
        <ele>1038.37173</ele>
        <time>2026-02-20T13:25:15.000Z</time>
      </trkpt>
      <trkpt lat="45.437863" lon="7.604238">
        <ele>1038.96036</ele>
        <time>2026-02-20T13:25:20.000Z</time>
      </trkpt>
      <trkpt lat="45.43784" lon="7.604251">
        <ele>1039.50755</ele>
        <time>2026-02-20T13:25:24.000Z</time>
      </trkpt>
      <trkpt lat="45.437813" lon="7.604262">
        <ele>1040.20298</ele>
        <time>2026-02-20T13:25:27.000Z</time>
      </trkpt>
      <trkpt lat="45.43779" lon="7.604259">
        <ele>1040.98028</ele>
        <time>2026-02-20T13:25:30.000Z</time>
      </trkpt>
      <trkpt lat="45.437774" lon="7.604284">
        <ele>1041.08158</ele>
        <time>2026-02-20T13:25:33.000Z</time>
      </trkpt>
      <trkpt lat="45.437754" lon="7.604299">
        <ele>1041.45592</ele>
        <time>2026-02-20T13:25:38.000Z</time>
      </trkpt>
      <trkpt lat="45.437732" lon="7.604307">
        <ele>1041.99865</ele>
        <time>2026-02-20T13:25:41.000Z</time>
      </trkpt>
      <trkpt lat="45.437719" lon="7.604337">
        <ele>1041.88938</ele>
        <time>2026-02-20T13:25:44.000Z</time>
      </trkpt>
      <trkpt lat="45.437706" lon="7.604374">
        <ele>1041.64876</ele>
        <time>2026-02-20T13:25:47.000Z</time>
      </trkpt>
      <trkpt lat="45.437682" lon="7.604398">
        <ele>1041.97432</ele>
        <time>2026-02-20T13:25:50.000Z</time>
      </trkpt>
      <trkpt lat="45.437669" lon="7.604433">
        <ele>1041.75814</ele>
        <time>2026-02-20T13:25:52.000Z</time>
      </trkpt>
      <trkpt lat="45.437653" lon="7.604459">
        <ele>1041.77704</ele>
        <time>2026-02-20T13:25:54.000Z</time>
      </trkpt>
      <trkpt lat="45.437632" lon="7.604482">
        <ele>1042.00913</ele>
        <time>2026-02-20T13:25:56.000Z</time>
      </trkpt>
      <trkpt lat="45.437616" lon="7.60452">
        <ele>1041.76377</ele>
        <time>2026-02-20T13:25:59.000Z</time>
      </trkpt>
      <trkpt lat="45.437587" lon="7.604554">
        <ele>1042.02748</ele>
        <time>2026-02-20T13:26:04.191Z</time>
      </trkpt>
      <trkpt lat="45.437564" lon="7.60459">
        <ele>1042.05934</ele>
        <time>2026-02-20T13:26:08.914Z</time>
      </trkpt>
      <trkpt lat="45.437542" lon="7.604637">
        <ele>1041.87838</ele>
        <time>2026-02-20T13:26:14.394Z</time>
      </trkpt>
      <trkpt lat="45.437511" lon="7.604679">
        <ele>1042.1326</ele>
        <time>2026-02-20T13:26:20.306Z</time>
      </trkpt>
      <trkpt lat="45.437476" lon="7.604724">
        <ele>1042.48963</ele>
        <time>2026-02-20T13:26:26.823Z</time>
      </trkpt>
      <trkpt lat="45.43746" lon="7.604777">
        <ele>1042.0931</ele>
        <time>2026-02-20T13:26:32.419Z</time>
      </trkpt>
      <trkpt lat="45.437429" lon="7.604814">
        <ele>1042.37978</ele>
        <time>2026-02-20T13:26:38.009Z</time>
      </trkpt>
      <trkpt lat="45.437392" lon="7.604854">
        <ele>1042.7102</ele>
        <time>2026-02-20T13:26:44.429Z</time>
      </trkpt>
      <trkpt lat="45.437368" lon="7.604902">
        <ele>1042.51469</ele>
        <time>2026-02-20T13:26:50.146Z</time>
      </trkpt>
      <trkpt lat="45.437333" lon="7.604947">
        <ele>1042.66037</ele>
        <time>2026-02-20T13:26:56.662Z</time>
      </trkpt>
      <trkpt lat="45.437307" lon="7.604994">
        <ele>1042.57955</ele>
        <time>2026-02-20T13:27:02.467Z</time>
      </trkpt>
      <trkpt lat="45.43727" lon="7.605036">
        <ele>1042.82717</ele>
        <time>2026-02-20T13:27:09.006Z</time>
      </trkpt>
      <trkpt lat="45.437243" lon="7.605089">
        <ele>1042.67667</ele>
        <time>2026-02-20T13:27:15.359Z</time>
      </trkpt>
      <trkpt lat="45.437204" lon="7.605125">
        <ele>1042.98854</ele>
        <time>2026-02-20T13:27:21.782Z</time>
      </trkpt>
      <trkpt lat="45.437176" lon="7.60519">
        <ele>1042.67888</ele>
        <time>2026-02-20T13:27:29.180Z</time>
      </trkpt>
      <trkpt lat="45.437146" lon="7.605236">
        <ele>1042.65542</ele>
        <time>2026-02-20T13:27:35.272Z</time>
      </trkpt>
      <trkpt lat="45.437116" lon="7.605275">
        <ele>1042.75735</ele>
        <time>2026-02-20T13:27:40.885Z</time>
      </trkpt>
      <trkpt lat="45.437076" lon="7.605318">
        <ele>1043.10314</ele>
        <time>2026-02-20T13:27:47.811Z</time>
      </trkpt>
      <trkpt lat="45.437055" lon="7.605367">
        <ele>1043.12095</ele>
        <time>2026-02-20T13:27:53.381Z</time>
      </trkpt>
      <trkpt lat="45.437013" lon="7.605411">
        <ele>1043.72754</ele>
        <time>2026-02-20T13:28:00.586Z</time>
      </trkpt>
      <trkpt lat="45.436989" lon="7.605468">
        <ele>1044.06687</ele>
        <time>2026-02-20T13:28:07.034Z</time>
      </trkpt>
      <trkpt lat="45.436947" lon="7.605515">
        <ele>1044.76595</ele>
        <time>2026-02-20T13:28:14.416Z</time>
      </trkpt>
      <trkpt lat="45.436919" lon="7.605564">
        <ele>1045.33816</ele>
        <time>2026-02-20T13:28:20.546Z</time>
      </trkpt>
      <trkpt lat="45.436894" lon="7.605601">
        <ele>1045.79831</ele>
        <time>2026-02-20T13:28:25.528Z</time>
      </trkpt>
      <trkpt lat="45.436862" lon="7.60564">
        <ele>1046.25957</ele>
        <time>2026-02-20T13:28:31.349Z</time>
      </trkpt>
      <trkpt lat="45.436839" lon="7.605675">
        <ele>1046.57022</ele>
        <time>2026-02-20T13:28:36.000Z</time>
      </trkpt>
      <trkpt lat="45.436807" lon="7.605664">
        <ele>1046.65862</ele>
        <time>2026-02-20T13:28:39.000Z</time>
      </trkpt>
      <trkpt lat="45.436781" lon="7.605657">
        <ele>1046.72099</ele>
        <time>2026-02-20T13:28:42.000Z</time>
      </trkpt>
      <trkpt lat="45.436761" lon="7.605635">
        <ele>1046.68447</ele>
        <time>2026-02-20T13:28:45.000Z</time>
      </trkpt>
      <trkpt lat="45.436743" lon="7.605611">
        <ele>1046.64673</ele>
        <time>2026-02-20T13:28:49.000Z</time>
      </trkpt>
      <trkpt lat="45.436718" lon="7.605592">
        <ele>1046.6812</ele>
        <time>2026-02-20T13:28:52.000Z</time>
      </trkpt>
      <trkpt lat="45.436697" lon="7.605563">
        <ele>1046.72147</ele>
        <time>2026-02-20T13:28:55.000Z</time>
      </trkpt>
      <trkpt lat="45.436672" lon="7.605538">
        <ele>1046.84214</ele>
        <time>2026-02-20T13:28:58.000Z</time>
      </trkpt>
      <trkpt lat="45.43665" lon="7.605522">
        <ele>1046.97494</ele>
        <time>2026-02-20T13:29:01.000Z</time>
      </trkpt>
      <trkpt lat="45.436624" lon="7.605542">
        <ele>1047.07506</ele>
        <time>2026-02-20T13:29:04.000Z</time>
      </trkpt>
      <trkpt lat="45.436589" lon="7.605548">
        <ele>1047.19147</ele>
        <time>2026-02-20T13:29:09.000Z</time>
      </trkpt>
      <trkpt lat="45.436562" lon="7.605548">
        <ele>1047.26618</ele>
        <time>2026-02-20T13:29:11.000Z</time>
      </trkpt>
      <trkpt lat="45.436534" lon="7.605538">
        <ele>1047.34867</ele>
        <time>2026-02-20T13:29:14.000Z</time>
      </trkpt>
      <trkpt lat="45.436515" lon="7.605508">
        <ele>1047.44793</ele>
        <time>2026-02-20T13:32:18.000Z</time>
      </trkpt>
      <trkpt lat="45.436493" lon="7.605486">
        <ele>1047.54532</ele>
        <time>2026-02-20T13:33:23.000Z</time>
      </trkpt>
      <trkpt lat="45.436466" lon="7.605441">
        <ele>1047.74675</ele>
        <time>2026-02-20T13:34:00.000Z</time>
      </trkpt>
      <trkpt lat="45.436446" lon="7.605402">
        <ele>1047.96734</ele>
        <time>2026-02-20T13:34:02.000Z</time>
      </trkpt>
      <trkpt lat="45.436428" lon="7.605366">
        <ele>1048.19966</ele>
        <time>2026-02-20T13:34:04.000Z</time>
      </trkpt>
      <trkpt lat="45.436416" lon="7.605332">
        <ele>1048.42058</ele>
        <time>2026-02-20T13:34:07.000Z</time>
      </trkpt>
      <trkpt lat="45.436395" lon="7.605302">
        <ele>1048.63522</ele>
        <time>2026-02-20T13:42:11.000Z</time>
      </trkpt>
      <trkpt lat="45.436368" lon="7.605257">
        <ele>1048.92181</ele>
        <time>2026-02-20T13:42:17.000Z</time>
      </trkpt>
      <trkpt lat="45.436358" lon="7.605224">
        <ele>1049.09894</ele>
        <time>2026-02-20T13:42:22.000Z</time>
      </trkpt>
      <trkpt lat="45.436337" lon="7.605172">
        <ele>1049.33113</ele>
        <time>2026-02-20T13:42:25.000Z</time>
      </trkpt>
      <trkpt lat="45.436327" lon="7.60514">
        <ele>1049.45746</ele>
        <time>2026-02-20T13:42:34.000Z</time>
      </trkpt>
      <trkpt lat="45.436318" lon="7.60511">
        <ele>1049.56884</ele>
        <time>2026-02-20T13:42:39.000Z</time>
      </trkpt>
      <trkpt lat="45.436305" lon="7.605075">
        <ele>1049.68578</ele>
        <time>2026-02-20T13:42:42.000Z</time>
      </trkpt>
      <trkpt lat="45.436297" lon="7.605026">
        <ele>1049.8833</ele>
        <time>2026-02-20T13:42:46.000Z</time>
      </trkpt>
      <trkpt lat="45.436302" lon="7.604981">
        <ele>1050.13057</ele>
        <time>2026-02-20T13:42:48.000Z</time>
      </trkpt>
      <trkpt lat="45.436307" lon="7.604934">
        <ele>1050.42586</ele>
        <time>2026-02-20T13:42:51.000Z</time>
      </trkpt>
      <trkpt lat="45.436304" lon="7.60491">
        <ele>1050.58568</ele>
        <time>2026-02-20T13:42:54.000Z</time>
      </trkpt>
      <trkpt lat="45.436288" lon="7.604872">
        <ele>1050.82003</ele>
        <time>2026-02-20T13:43:26.000Z</time>
      </trkpt>
      <trkpt lat="45.436276" lon="7.604848">
        <ele>1050.9562</ele>
        <time>2026-02-20T13:43:28.000Z</time>
      </trkpt>
      <trkpt lat="45.436258" lon="7.604817">
        <ele>1051.08227</ele>
        <time>2026-02-20T13:43:35.000Z</time>
      </trkpt>
      <trkpt lat="45.436238" lon="7.604772">
        <ele>1051.2004</ele>
        <time>2026-02-20T13:43:41.000Z</time>
      </trkpt>
      <trkpt lat="45.43622" lon="7.60474">
        <ele>1051.13076</ele>
        <time>2026-02-20T13:53:04.000Z</time>
      </trkpt>
      <trkpt lat="45.436216" lon="7.604715">
        <ele>1051.16</ele>
        <time>2026-02-20T13:53:05.000Z</time>
      </trkpt>
      <trkpt lat="45.436216" lon="7.604684">
        <ele>1051.21983</ele>
        <time>2026-02-20T13:53:31.000Z</time>
      </trkpt>
      <trkpt lat="45.436235" lon="7.604652">
        <ele>1051.52424</ele>
        <time>2026-02-20T13:53:34.000Z</time>
      </trkpt>
      <trkpt lat="45.436252" lon="7.604629">
        <ele>1051.73595</ele>
        <time>2026-02-20T13:53:53.190Z</time>
      </trkpt>
      <trkpt lat="45.436272" lon="7.604611">
        <ele>1051.93151</ele>
        <time>2026-02-20T13:54:12.556Z</time>
      </trkpt>
      <trkpt lat="45.436297" lon="7.604588">
        <ele>1052.11796</ele>
        <time>2026-02-20T13:54:36.917Z</time>
      </trkpt>
      <trkpt lat="45.436317" lon="7.604567">
        <ele>1052.24426</ele>
        <time>2026-02-20T13:54:57.254Z</time>
      </trkpt>
      <trkpt lat="45.436336" lon="7.60455">
        <ele>1052.36486</ele>
        <time>2026-02-20T13:55:15.621Z</time>
      </trkpt>
      <trkpt lat="45.436358" lon="7.604528">
        <ele>1052.51457</ele>
        <time>2026-02-20T13:55:37.623Z</time>
      </trkpt>
      <trkpt lat="45.43638" lon="7.604507">
        <ele>1052.68049</ele>
        <time>2026-02-20T13:55:59.301Z</time>
      </trkpt>
      <trkpt lat="45.436399" lon="7.604486">
        <ele>1052.84082</ele>
        <time>2026-02-20T13:56:18.986Z</time>
      </trkpt>
      <trkpt lat="45.436421" lon="7.604464">
        <ele>1053.02973</ele>
        <time>2026-02-20T13:56:40.988Z</time>
      </trkpt>
      <trkpt lat="45.436445" lon="7.604443">
        <ele>1053.22453</ele>
        <time>2026-02-20T13:57:04.044Z</time>
      </trkpt>
      <trkpt lat="45.436466" lon="7.604422">
        <ele>1053.37806</ele>
        <time>2026-02-20T13:57:25.047Z</time>
      </trkpt>
      <trkpt lat="45.436487" lon="7.6044">
        <ele>1053.51463</ele>
        <time>2026-02-20T13:57:46.384Z</time>
      </trkpt>
      <trkpt lat="45.43651" lon="7.604378">
        <ele>1053.6519</ele>
        <time>2026-02-20T13:58:09.062Z</time>
      </trkpt>
      <trkpt lat="45.43653" lon="7.604361">
        <ele>1053.76886</ele>
        <time>2026-02-20T13:58:28.127Z</time>
      </trkpt>
      <trkpt lat="45.436547" lon="7.604345">
        <ele>1053.87899</ele>
        <time>2026-02-20T13:58:44.805Z</time>
      </trkpt>
      <trkpt lat="45.436572" lon="7.604321">
        <ele>1054.06045</ele>
        <time>2026-02-20T13:59:09.483Z</time>
      </trkpt>
      <trkpt lat="45.436593" lon="7.604299">
        <ele>1054.23762</ele>
        <time>2026-02-20T13:59:30.820Z</time>
      </trkpt>
      <trkpt lat="45.436611" lon="7.60428">
        <ele>1054.40147</ele>
        <time>2026-02-20T13:59:49.158Z</time>
      </trkpt>
      <trkpt lat="45.436628" lon="7.604263">
        <ele>1054.55711</ele>
        <time>2026-02-20T14:00:06.160Z</time>
      </trkpt>
      <trkpt lat="45.436646" lon="7.604249">
        <ele>1054.70218</ele>
        <time>2026-02-20T14:00:22.948Z</time>
      </trkpt>
      <trkpt lat="45.436665" lon="7.604232">
        <ele>1054.85606</ele>
        <time>2026-02-20T14:00:41.314Z</time>
      </trkpt>
      <trkpt lat="45.43668" lon="7.604211">
        <ele>1054.99703</ele>
        <time>2026-02-20T14:00:58.529Z</time>
      </trkpt>
      <trkpt lat="45.436689" lon="7.60419">
        <ele>1055.10217</ele>
        <time>2026-02-20T14:01:12.664Z</time>
      </trkpt>
      <trkpt lat="45.436702" lon="7.604162">
        <ele>1055.23742</ele>
        <time>2026-02-20T14:01:31.952Z</time>
      </trkpt>
      <trkpt lat="45.436709" lon="7.604135">
        <ele>1055.33688</ele>
        <time>2026-02-20T14:01:48.487Z</time>
      </trkpt>
      <trkpt lat="45.436711" lon="7.6041">
        <ele>1055.41794</ele>
        <time>2026-02-20T14:02:08.659Z</time>
      </trkpt>
      <trkpt lat="45.436706" lon="7.604074">
        <ele>1055.42135</ele>
        <time>2026-02-20T14:02:24.146Z</time>
      </trkpt>
      <trkpt lat="45.436697" lon="7.604049">
        <ele>1055.371</ele>
        <time>2026-02-20T14:02:40.287Z</time>
      </trkpt>
      <trkpt lat="45.436684" lon="7.604029">
        <ele>1055.2584</ele>
        <time>2026-02-20T14:02:55.948Z</time>
      </trkpt>
      <trkpt lat="45.436668" lon="7.604005">
        <ele>1055.08495</ele>
        <time>2026-02-20T14:03:14.966Z</time>
      </trkpt>
      <trkpt lat="45.43665" lon="7.603987">
        <ele>1054.86834</ele>
        <time>2026-02-20T14:03:32.968Z</time>
      </trkpt>
      <trkpt lat="45.436633" lon="7.603971">
        <ele>1054.64701</ele>
        <time>2026-02-20T14:03:49.646Z</time>
      </trkpt>
      <trkpt lat="45.436617" lon="7.603957">
        <ele>1054.43107</ele>
        <time>2026-02-20T14:04:05.017Z</time>
      </trkpt>
      <trkpt lat="45.436598" lon="7.603934">
        <ele>1054.14617</ele>
        <time>2026-02-20T14:04:25.426Z</time>
      </trkpt>
      <trkpt lat="45.436577" lon="7.603912">
        <ele>1053.82833</ele>
        <time>2026-02-20T14:04:46.764Z</time>
      </trkpt>
      <trkpt lat="45.436556" lon="7.603888">
        <ele>1053.48112</ele>
        <time>2026-02-20T14:05:08.801Z</time>
      </trkpt>
      <trkpt lat="45.436537" lon="7.603866">
        <ele>1053.1445</ele>
        <time>2026-02-20T14:05:28.843Z</time>
      </trkpt>
      <trkpt lat="45.436519" lon="7.603847">
        <ele>1052.81727</ele>
        <time>2026-02-20T14:05:47.181Z</time>
      </trkpt>
      <trkpt lat="45.436499" lon="7.60383">
        <ele>1052.46021</ele>
        <time>2026-02-20T14:06:06.246Z</time>
      </trkpt>
      <trkpt lat="45.43648" lon="7.603816">
        <ele>1052.12185</ele>
        <time>2026-02-20T14:06:23.757Z</time>
      </trkpt>
      <trkpt lat="45.43646" lon="7.603799">
        <ele>1051.74286</ele>
        <time>2026-02-20T14:06:42.821Z</time>
      </trkpt>
      <trkpt lat="45.436438" lon="7.603788">
        <ele>1051.36819</ele>
        <time>2026-02-20T14:07:01.908Z</time>
      </trkpt>
      <trkpt lat="45.436416" lon="7.603764">
        <ele>1050.91743</ele>
        <time>2026-02-20T14:07:24.590Z</time>
      </trkpt>
      <trkpt lat="45.436389" lon="7.603754">
        <ele>1050.49554</ele>
        <time>2026-02-20T14:07:47.429Z</time>
      </trkpt>
      <trkpt lat="45.436357" lon="7.603731">
        <ele>1049.95335</ele>
        <time>2026-02-20T14:08:16.770Z</time>
      </trkpt>
      <trkpt lat="45.436328" lon="7.603713">
        <ele>1049.49251</ele>
        <time>2026-02-20T14:08:42.665Z</time>
      </trkpt>
      <trkpt lat="45.436306" lon="7.603707">
        <ele>1049.17787</ele>
        <time>2026-02-20T14:09:01.003Z</time>
      </trkpt>
      <trkpt lat="45.436285" lon="7.603687">
        <ele>1048.81526</ele>
        <time>2026-02-20T14:09:21.681Z</time>
      </trkpt>
      <trkpt lat="45.436259" lon="7.603672">
        <ele>1048.39328</ele>
        <time>2026-02-20T14:09:44.644Z</time>
      </trkpt>
      <trkpt lat="45.436235" lon="7.603663">
        <ele>1048.0035</ele>
        <time>2026-02-20T14:10:04.961Z</time>
      </trkpt>
      <trkpt lat="45.436219" lon="7.60366">
        <ele>1047.7446</ele>
        <time>2026-02-20T14:10:18.173Z</time>
      </trkpt>
      <trkpt lat="45.436206" lon="7.603652">
        <ele>1047.51103</ele>
        <time>2026-02-20T14:10:29.766Z</time>
      </trkpt>
      <trkpt lat="45.436166" lon="7.603625">
        <ele>1046.77181</ele>
        <time>2026-02-20T14:11:06.000Z</time>
      </trkpt>
    </trkseg>
  </trk>
</gpx>